Time;durP1;ratioP1;P1;durP2;ratioP2;P2;SDS_P1;SDS_P2;PMS_P1;PMS_P2;Temp;Humidity;BMP_temperature;BMP_pressure;BME280_temperature;BME280_humidity;BME280_pressure;Samples;Min_cycle;Max_cycle;Signal;HPM_P1;HPM_P2
2021/04/27 00:00:37;;;;;;;3.35;3.03;;;7.40;53.20;;;;;;4928693;29;20687;-66
2021/04/27 00:03:05;;;;;;;5.07;4.10;;;7.30;53.40;;;;;;4931092;29;20202;-66
2021/04/27 00:05:32;;;;;;;3.10;2.90;;;7.10;54.10;;;;;;4924664;29;20691;-69
2021/04/27 00:07:59;;;;;;;3.50;3.20;;;6.80;55.00;;;;;;4923707;29;20358;-66
2021/04/27 00:10:26;;;;;;;3.33;3.03;;;6.80;55.20;;;;;;4929989;29;20229;-69
2021/04/27 00:12:53;;;;;;;3.88;3.53;;;6.90;54.60;;;;;;4930774;29;20214;-69
2021/04/27 00:15:21;;;;;;;3.70;3.40;;;6.90;54.40;;;;;;4929312;29;20723;-66
2021/04/27 00:17:49;;;;;;;6.00;3.78;;;6.90;54.90;;;;;;4929355;29;20305;-69
2021/04/27 00:20:16;;;;;;;4.32;3.20;;;6.70;55.30;;;;;;4921390;29;20646;-66
2021/04/27 00:22:43;;;;;;;3.13;2.83;;;6.50;55.40;;;;;;4930648;29;20229;-65
2021/04/27 00:25:11;;;;;;;4.55;3.53;;;6.30;56.40;;;;;;4929741;29;20202;-66
2021/04/27 00:30:10;;;;;;;4.68;4.03;;;6.00;57.30;;;;;;4930533;29;20241;-66
2021/04/27 00:32:36;;;;;;;3.40;3.10;;;5.80;58.50;;;;;;4930310;29;20655;-66
2021/04/27 00:35:03;;;;;;;3.70;3.40;;;5.70;59.20;;;;;;4928515;29;20220;-66
2021/04/27 00:37:30;;;;;;;3.45;3.10;;;5.60;58.90;;;;;;4929572;29;20221;-66
2021/04/27 00:39:56;;;;;;;3.92;3.53;;;5.50;58.90;;;;;;4926248;29;20294;-66
2021/04/27 00:42:29;;;;;;;3.78;3.47;;;5.60;59.60;;;;;;4926218;29;20236;-66
2021/04/27 00:44:56;;;;;;;4.78;3.60;;;5.60;59.70;;;;;;4928711;29;20202;-67
2021/04/27 00:47:22;;;;;;;4.15;3.42;;;5.60;61.00;;;;;;4929472;29;20202;-67
2021/04/27 00:49:49;;;;;;;4.05;3.45;;;5.50;59.70;;;;;;4929863;29;20245;-67
2021/04/27 00:52:16;;;;;;;3.50;3.20;;;5.30;61.20;;;;;;4930007;29;20206;-66
2021/04/27 00:54:42;;;;;;;3.42;3.13;;;5.30;60.90;;;;;;4927692;29;20216;-66
2021/04/27 00:57:08;;;;;;;3.65;3.33;;;5.10;61.80;;;;;;4924686;29;20289;-66
2021/04/27 00:59:36;;;;;;;6.25;3.83;;;5.10;61.30;;;;;;4929382;29;20205;-66
2021/04/27 01:02:03;;;;;;;4.07;3.78;;;5.00;61.60;;;;;;4924997;29;20233;-66
2021/04/27 01:04:30;;;;;;;3.45;3.15;;;5.10;61.20;;;;;;4921795;29;20226;-66
2021/04/27 01:06:56;;;;;;;5.40;3.63;;;5.10;62.60;;;;;;4924000;29;20296;-66
2021/04/27 01:09:29;;;;;;;4.18;3.40;;;5.10;62.00;;;;;;4927542;29;20300;-66
2021/04/27 01:12:00;;;;;;;3.60;3.30;;;5.00;63.60;;;;;;4929446;29;20299;-66
2021/04/27 01:14:30;;;;;;;3.35;3.05;;;5.00;63.30;;;;;;4928032;29;20228;-67
2021/04/27 01:17:01;;;;;;;3.97;3.63;;;5.00;62.00;;;;;;4921001;29;20206;-66
2021/04/27 01:19:34;;;;;;;3.50;3.20;;;4.80;62.40;;;;;;4920440;29;20303;-67
2021/04/27 01:22:01;;;;;;;3.70;3.40;;;5.00;61.60;;;;;;4926748;29;20269;-66
2021/04/27 01:24:34;;;;;;;3.95;3.55;;;4.90;62.70;;;;;;4928409;29;20205;-69
2021/04/27 01:27:03;;;;;;;5.88;4.00;;;4.80;62.50;;;;;;4928300;29;20216;-66
2021/04/27 01:29:33;;;;;;;3.90;3.50;;;4.80;63.40;;;;;;4928222;29;20245;-66
2021/04/27 01:32:03;;;;;;;3.70;3.40;;;4.80;62.90;;;;;;4922167;29;20210;-66
2021/04/27 01:34:32;;;;;;;5.82;3.75;;;4.80;63.00;;;;;;4927538;29;20773;-66
2021/04/27 01:36:59;;;;;;;3.55;3.25;;;4.70;63.90;;;;;;4924830;29;20201;-67
2021/04/27 01:39:27;;;;;;;3.95;3.53;;;4.60;64.20;;;;;;4926949;29;20206;-66
2021/04/27 01:41:54;;;;;;;4.07;3.60;;;4.50;64.10;;;;;;4921391;29;20687;-68
2021/04/27 01:44:22;;;;;;;3.85;3.38;;;4.40;65.00;;;;;;4928686;29;20207;-68
2021/04/27 01:46:49;;;;;;;5.57;5.05;;;4.50;64.80;;;;;;4928731;29;20238;-69
2021/04/27 01:49:16;;;;;;;3.63;3.33;;;4.40;65.00;;;;;;4929104;29;20335;-66
2021/04/27 01:51:43;;;;;;;7.90;3.85;;;4.40;65.00;;;;;;4926123;29;20221;-66
2021/04/27 01:54:10;;;;;;;6.07;3.60;;;4.40;65.40;;;;;;4922291;29;20213;-65
2021/04/27 01:56:37;;;;;;;5.82;3.92;;;4.40;65.20;;;;;;4926585;29;20216;-66
2021/04/27 01:59:04;;;;;;;5.30;3.45;;;4.40;65.40;;;;;;4928731;29;20202;-66
2021/04/27 02:01:32;;;;;;;10.65;3.70;;;4.40;66.10;;;;;;4924028;29;20203;-66
2021/04/27 02:03:58;;;;;;;4.30;3.90;;;4.50;66.10;;;;;;4924219;29;20208;-66
2021/04/27 02:06:25;;;;;;;4.55;3.63;;;4.40;65.80;;;;;;4927068;29;20320;-67
2021/04/27 02:08:59;;;;;;;6.60;4.00;;;4.50;65.40;;;;;;4928282;29;20206;-67
2021/04/27 02:11:27;;;;;;;5.85;3.40;;;4.50;65.40;;;;;;4926119;29;20303;-66
2021/04/27 02:13:53;;;;;;;8.30;4.05;;;4.50;66.70;;;;;;4926635;29;20197;-66
2021/04/27 02:16:24;;;;;;;4.45;3.90;;;4.50;66.20;;;;;;4927670;29;20295;-66
2021/04/27 02:18:56;;;;;;;4.18;3.80;;;4.40;67.10;;;;;;4920178;29;20206;-67
2021/04/27 02:21:23;;;;;;;5.18;3.60;;;4.30;67.30;;;;;;4918633;29;20225;-68
2021/04/27 02:23:51;;;;;;;4.63;3.65;;;4.20;67.70;;;;;;4927454;29;20221;-66
2021/04/27 02:26:18;;;;;;;4.13;3.72;;;4.20;67.80;;;;;;4926519;29;20228;-66
2021/04/27 02:28:45;;;;;;;3.65;3.35;;;4.30;67.30;;;;;;4927950;29;20750;-66
2021/04/27 02:31:11;;;;;;;3.58;3.05;;;4.20;67.80;;;;;;4927580;29;20235;-66
2021/04/27 02:33:39;;;;;;;4.25;3.85;;;4.20;67.00;;;;;;4926504;29;20213;-66
2021/04/27 02:36:07;;;;;;;4.22;3.83;;;4.30;66.40;;;;;;4927919;29;20264;-66
2021/04/27 02:38:34;;;;;;;4.82;4.35;;;4.40;66.50;;;;;;4922653;29;20220;-66
2021/04/27 02:41:01;;;;;;;4.80;4.30;;;4.30;66.90;;;;;;4928352;29;20570;-67
2021/04/27 02:43:28;;;;;;;8.80;4.43;;;4.30;66.90;;;;;;4927920;29;20210;-66
2021/04/27 02:45:55;;;;;;;5.90;3.95;;;4.20;67.50;;;;;;4926646;29;20238;-65
2021/04/27 02:48:24;;;;;;;5.05;4.07;;;4.20;67.80;;;;;;4928351;29;20205;-66
2021/04/27 02:50:53;;;;;;;4.80;4.30;;;4.20;68.20;;;;;;4924472;29;20376;-66
2021/04/27 02:53:20;;;;;;;4.35;3.95;;;4.10;70.10;;;;;;4927827;29;20650;-66
2021/04/27 02:55:48;;;;;;;4.32;3.92;;;4.10;70.10;;;;;;4927422;29;20248;-66
2021/04/27 02:58:15;;;;;;;4.68;4.18;;;4.10;69.60;;;;;;4928885;29;20306;-65
2021/04/27 03:00:42;;;;;;;7.15;4.10;;;4.10;69.40;;;;;;4929672;29;20202;-66
2021/04/27 03:03:08;;;;;;;4.00;3.60;;;4.10;69.20;;;;;;4931596;29;20292;-66
2021/04/27 03:05:35;;;;;;;5.55;4.10;;;4.00;69.50;;;;;;4928566;29;20244;-66
2021/04/27 03:08:02;;;;;;;7.80;4.18;;;4.00;68.60;;;;;;4928824;29;20213;-66
2021/04/27 03:10:29;;;;;;;4.38;4.05;;;4.10;68.90;;;;;;4931558;29;20241;-66
2021/04/27 03:12:55;;;;;;;5.43;3.80;;;4.10;68.00;;;;;;4925851;29;20206;-66
2021/04/27 03:15:22;;;;;;;5.88;4.72;;;4.30;67.20;;;;;;4930073;29;20660;-66
2021/04/27 03:17:48;;;;;;;4.28;3.55;;;4.60;66.20;;;;;;4924576;29;20313;-66
2021/04/27 03:20:15;;;;;;;4.35;3.42;;;4.70;65.90;;;;;;4933680;29;20214;-66
2021/04/27 03:22:42;;;;;;;5.07;4.53;;;4.80;65.30;;;;;;4934194;29;20301;-69
2021/04/27 03:25:11;;;;;;;4.93;4.22;;;4.70;65.30;;;;;;4932417;29;20292;-66
2021/04/27 03:27:39;;;;;;;4.45;4.05;;;4.60;66.60;;;;;;4932866;29;20228;-66
2021/04/27 03:30:08;;;;;;;5.75;4.20;;;4.50;67.90;;;;;;4931243;29;20281;-65
2021/04/27 03:32:34;;;;;;;5.50;4.13;;;4.30;69.30;;;;;;4929032;29;20202;-66
2021/04/27 03:35:01;;;;;;;7.15;5.20;;;4.20;71.00;;;;;;4931592;29;20735;-65
2021/04/27 03:37:27;;;;;;;5.03;4.53;;;4.10;71.80;;;;;;4932462;29;20202;-67
2021/04/27 03:39:54;;;;;;;6.40;5.25;;;4.10;72.50;;;;;;4930983;29;20726;-66
2021/04/27 03:42:20;;;;;;;6.45;5.25;;;4.10;73.00;;;;;;4931249;29;20300;-66
2021/04/27 03:44:47;;;;;;;6.03;5.47;;;4.00;72.70;;;;;;4931778;29;20653;-66
2021/04/27 03:47:13;;;;;;;6.20;5.60;;;4.00;73.10;;;;;;4928995;29;20265;-66
2021/04/27 03:49:40;;;;;;;6.40;5.80;;;4.00;73.20;;;;;;4932640;29;20952;-66
2021/04/27 03:52:07;;;;;;;6.35;5.75;;;4.10;73.80;;;;;;4932312;29;20201;-66
2021/04/27 03:54:33;;;;;;;8.25;5.90;;;4.10;73.60;;;;;;4930960;29;20684;-66
2021/04/27 03:57:02;;;;;;;9.60;5.90;;;4.10;73.70;;;;;;4930920;29;20206;-66
2021/04/27 03:59:28;;;;;;;7.00;5.85;;;4.20;73.70;;;;;;4925199;29;20214;-67
2021/04/27 04:01:55;;;;;;;8.02;6.28;;;4.10;73.70;;;;;;4932484;29;20210;-65
2021/04/27 04:04:22;;;;;;;8.52;6.40;;;4.10;74.50;;;;;;4931906;29;20202;-66
2021/04/27 04:06:48;;;;;;;7.75;6.55;;;4.10;74.60;;;;;;4927472;29;20209;-66
2021/04/27 04:09:14;;;;;;;6.95;6.18;;;4.10;75.00;;;;;;4925149;29;20206;-66
2021/04/27 04:11:41;;;;;;;7.03;6.07;;;4.10;75.20;;;;;;4930824;29;20260;-66
2021/04/27 04:14:07;;;;;;;7.03;6.32;;;4.10;75.20;;;;;;4930746;29;20220;-66
2021/04/27 04:16:33;;;;;;;7.07;6.47;;;4.10;76.00;;;;;;4930717;29;20297;-67
2021/04/27 04:19:01;;;;;;;6.00;5.40;;;4.00;75.60;;;;;;4930864;29;20370;-65
2021/04/27 04:21:27;;;;;;;13.07;7.82;;;4.10;75.20;;;;;;4925245;29;20759;-66
2021/04/27 04:23:54;;;;;;;9.98;6.13;;;4.10;74.90;;;;;;4929971;29;20345;-67
2021/04/27 04:26:21;;;;;;;7.82;6.93;;;4.10;75.50;;;;;;4931050;29;20280;-66
2021/04/27 04:28:48;;;;;;;6.78;6.18;;;4.10;75.80;;;;;;4930996;29;20201;-66
2021/04/27 04:31:14;;;;;;;8.43;6.68;;;4.10;76.20;;;;;;4930820;29;20225;-66
2021/04/27 04:33:41;;;;;;;9.23;7.05;;;4.20;76.00;;;;;;4930660;29;20676;-65
2021/04/27 04:36:08;;;;;;;8.27;7.25;;;4.20;75.80;;;;;;4925939;29;20209;-66
2021/04/27 04:38:34;;;;;;;9.45;7.18;;;4.20;76.00;;;;;;4928957;29;20276;-66
2021/04/27 04:41:01;;;;;;;7.03;6.20;;;4.30;76.30;;;;;;4930178;29;20216;-66
2021/04/27 04:43:28;;;;;;;7.00;6.30;;;4.30;76.40;;;;;;4930423;29;20660;-66
2021/04/27 04:45:54;;;;;;;8.00;7.20;;;4.40;76.00;;;;;;4925679;29;20209;-67
2021/04/27 04:48:20;;;;;;;7.10;6.40;;;4.40;75.70;;;;;;4930732;29;20217;-66
2021/04/27 04:50:47;;;;;;;9.63;6.57;;;4.50;76.60;;;;;;4929323;29;20234;-67
2021/04/27 04:53:14;;;;;;;7.28;6.40;;;4.60;75.60;;;;;;4929900;29;20253;-66
2021/04/27 04:55:41;;;;;;;9.07;7.00;;;4.80;75.30;;;;;;4924395;29;20245;-66
2021/04/27 04:58:07;;;;;;;9.60;7.30;;;4.90;75.00;;;;;;4929554;29;20294;-67
2021/04/27 05:00:33;;;;;;;6.38;5.78;;;5.10;74.60;;;;;;4930153;29;20297;-67
2021/04/27 05:03:00;;;;;;;7.28;5.57;;;5.30;74.10;;;;;;4925010;29;20214;-66
2021/04/27 05:05:26;;;;;;;6.88;6.10;;;5.60;73.70;;;;;;4927805;29;20212;-71
2021/04/27 05:07:59;;;;;;;8.07;5.50;;;5.90;72.10;;;;;;4922256;29;20293;-66
2021/04/27 05:10:26;;;;;;;6.28;5.30;;;6.40;71.10;;;;;;4927838;29;20277;-67
2021/04/27 05:12:53;;;;;;;8.63;5.55;;;6.50;69.70;;;;;;4919504;29;20406;-66
2021/04/27 05:15:20;;;;;;;6.25;5.65;;;6.40;69.80;;;;;;4924223;29;20268;-67
2021/04/27 05:17:47;;;;;;;6.75;5.55;;;6.50;70.20;;;;;;4928952;29;20206;-66
2021/04/27 05:20:16;;;;;;;5.68;5.15;;;6.60;70.40;;;;;;4929368;29;20205;-67
2021/04/27 05:22:45;;;;;;;9.00;5.90;;;6.70;69.20;;;;;;4929731;29;20209;-67
2021/04/27 05:25:12;;;;;;;5.75;4.75;;;7.00;68.30;;;;;;4927222;29;20205;-66
2021/04/27 05:27:40;;;;;;;5.30;4.80;;;7.30;67.50;;;;;;4926551;29;20214;-67
2021/04/27 05:30:07;;;;;;;6.15;4.45;;;7.50;66.90;;;;;;4930027;29;20237;-67
2021/04/27 05:32:33;;;;;;;5.38;4.63;;;7.50;66.50;;;;;;4927511;29;20661;-67
2021/04/27 05:35:00;;;;;;;5.38;4.78;;;7.60;66.60;;;;;;4929018;29;20821;-64
2021/04/27 05:37:26;;;;;;;5.20;4.70;;;7.70;66.70;;;;;;4929096;29;20293;-67
2021/04/27 05:39:52;;;;;;;7.20;5.65;;;8.00;65.60;;;;;;4929360;29;20224;-67
2021/04/27 05:42:19;;;;;;;5.68;5.18;;;8.30;64.30;;;;;;4928942;29;20300;-67
2021/04/27 05:44:47;;;;;;;6.68;6.10;;;8.90;63.50;;;;;;4927821;29;20213;-67
2021/04/27 05:47:14;;;;;;;7.30;5.45;;;9.60;62.30;;;;;;4926140;29;20213;-67
2021/04/27 05:49:40;;;;;;;7.75;5.38;;;10.10;59.70;;;;;;4927827;29;20216;-68
2021/04/27 05:52:07;;;;;;;5.70;4.93;;;10.60;57.80;;;;;;4927931;29;20198;-67
2021/04/27 05:54:34;;;;;;;5.32;4.25;;;11.60;57.00;;;;;;4923909;29;20217;-67
2021/04/27 05:57:00;;;;;;;5.50;5.00;;;12.50;55.10;;;;;;4924749;29;20205;-67
2021/04/27 05:59:27;;;;;;;5.00;4.50;;;13.40;54.30;;;;;;4929710;29;20202;-67
2021/04/27 06:01:55;;;;;;;6.00;5.10;;;13.80;52.30;;;;;;4926542;29;20296;-67
2021/04/27 06:04:21;;;;;;;7.13;4.68;;;14.40;50.50;;;;;;4924106;29;20656;-67
2021/04/27 06:06:48;;;;;;;6.00;5.40;;;14.70;50.10;;;;;;4928259;29;20245;-68
2021/04/27 06:09:16;;;;;;;6.00;5.50;;;15.80;49.50;;;;;;4929037;29;20252;-68
2021/04/27 06:11:43;;;;;;;5.77;5.23;;;16.60;48.70;;;;;;4924498;29;20697;-68
2021/04/27 06:14:09;;;;;;;6.13;5.53;;;17.40;46.80;;;;;;4925908;29;20753;-68
2021/04/27 06:16:36;;;;;;;6.10;4.90;;;17.10;46.70;;;;;;4928228;29;20638;-68
2021/04/27 06:19:04;;;;;;;5.87;5.37;;;17.80;46.10;;;;;;4927084;29;20650;-68
2021/04/27 06:21:32;;;;;;;5.57;5.07;;;19.00;44.40;;;;;;4925719;29;21028;-68
2021/04/27 06:23:59;;;;;;;6.97;5.90;;;19.70;43.10;;;;;;4920755;29;20656;-68
2021/04/27 06:26:26;;;;;;;6.67;5.87;;;18.80;44.50;;;;;;4927018;29;20633;-67
2021/04/27 06:28:53;;;;;;;7.33;5.60;;;18.60;43.70;;;;;;4927781;29;21046;-67
2021/04/27 06:31:19;;;;;;;6.57;5.60;;;18.30;43.70;;;;;;4924649;29;20673;-68
2021/04/27 06:33:46;;;;;;;7.10;6.40;;;19.00;42.60;;;;;;4927941;29;20732;-68
2021/04/27 06:36:14;;;;;;;7.30;6.70;;;19.30;41.10;;;;;;4927052;29;20634;-67
2021/04/27 06:38:42;;;;;;;6.27;5.67;;;18.90;41.60;;;;;;4927975;29;20649;-68
2021/04/27 06:41:08;;;;;;;8.00;6.43;;;19.20;41.60;;;;;;4926630;29;20757;-67
2021/04/27 06:43:35;;;;;;;7.37;6.67;;;18.50;41.70;;;;;;4927931;29;20687;-68
2021/04/27 06:46:02;;;;;;;7.17;6.50;;;18.20;42.30;;;;;;4927292;29;20630;-68
2021/04/27 06:48:28;;;;;;;6.63;6.07;;;18.10;43.30;;;;;;4927688;29;21033;-68
2021/04/27 06:50:55;;;;;;;7.00;6.40;;;18.60;42.40;;;;;;4926464;29;20714;-67
2021/04/27 06:53:23;;;;;;;5.93;5.53;;;18.50;42.10;;;;;;4924934;29;20645;-67
2021/04/27 06:55:49;;;;;;;6.97;6.07;;;18.70;43.30;;;;;;4927137;29;20704;-68
2021/04/27 06:58:16;;;;;;;7.47;6.77;;;18.40;43.80;;;;;;4925814;29;20641;-67
2021/04/27 07:00:43;;;;;;;6.63;6.03;;;18.90;41.70;;;;;;4927113;29;20676;-68
2021/04/27 07:03:10;;;;;;;8.83;6.10;;;19.30;41.70;;;;;;4927314;29;20646;-67
2021/04/27 07:05:37;;;;;;;6.50;5.90;;;19.10;42.30;;;;;;4927000;29;20647;-68
2021/04/27 07:08:04;;;;;;;8.90;5.57;;;18.60;42.80;;;;;;4926741;29;20650;-68
2021/04/27 07:10:33;;;;;;;7.37;6.70;;;19.20;42.20;;;;;;4918229;29;21243;-68
2021/04/27 07:13:00;;;;;;;9.07;6.17;;;18.50;41.60;;;;;;4928019;29;20760;-67
2021/04/27 07:15:26;;;;;;;11.47;6.50;;;17.30;44.40;;;;;;4925104;29;20669;-68
2021/04/27 07:17:53;;;;;;;7.27;6.70;;;18.00;44.70;;;;;;4926403;29;20748;-67
2021/04/27 07:20:20;;;;;;;7.20;6.60;;;18.60;44.70;;;;;;4927272;29;21050;-68
2021/04/27 07:22:46;;;;;;;7.30;6.60;;;20.10;41.60;;;;;;4928398;29;21263;-68
2021/04/27 07:25:14;;;;;;;7.10;6.43;;;20.50;39.90;;;;;;4920501;29;20740;-68
2021/04/27 07:27:42;;;;;;;7.70;7.00;;;20.20;41.60;;;;;;4927538;29;20638;-68
2021/04/27 07:30:10;;;;;;;7.00;6.30;;;19.10;43.40;;;;;;4922953;29;20677;-68
2021/04/27 07:32:37;;;;;;;6.83;6.27;;;19.40;43.10;;;;;;4911393;29;20749;-69
2021/04/27 07:35:05;;;;;;;6.40;5.90;;;20.10;41.80;;;;;;4916139;29;20645;-68
2021/04/27 07:37:31;;;;;;;7.10;6.50;;;20.40;42.40;;;;;;4928685;29;21001;-68
2021/04/27 07:39:58;;;;;;;8.13;6.23;;;20.10;42.70;;;;;;4922610;29;21218;-69
2021/04/27 07:42:26;;;;;;;7.53;6.77;;;20.50;41.50;;;;;;4930482;29;20732;-68
2021/04/27 07:44:54;;;;;;;6.93;6.40;;;19.90;42.60;;;;;;4915188;29;21386;-68
2021/04/27 07:47:21;;;;;;;7.43;6.83;;;19.80;43.00;;;;;;4927773;29;20638;-68
2021/04/27 07:49:48;;;;;;;7.60;6.93;;;19.40;43.70;;;;;;4920790;29;20644;-68
2021/04/27 07:52:15;;;;;;;9.47;7.23;;;18.90;43.70;;;;;;4924978;29;20698;-69
2021/04/27 07:54:42;;;;;;;7.77;7.00;;;18.30;43.60;;;;;;4921212;29;20692;-69
2021/04/27 07:57:09;;;;;;;8.07;7.37;;;17.90;45.30;;;;;;4920733;29;20634;-68
2021/04/27 07:59:36;;;;;;;9.50;7.40;;;17.40;46.00;;;;;;4922102;29;20659;-68
2021/04/27 08:02:04;;;;;;;8.18;7.40;;;16.70;47.60;;;;;;4926324;29;21372;-68
2021/04/27 08:04:31;;;;;;;7.53;6.82;;;15.50;49.40;;;;;;4930185;29;20202;-68
2021/04/27 08:06:58;;;;;;;7.80;7.10;;;14.80;50.20;;;;;;4929868;29;20206;-68
2021/04/27 08:09:26;;;;;;;8.43;7.60;;;14.40;51.30;;;;;;4924348;29;20222;-68
2021/04/27 08:11:54;;;;;;;8.48;7.68;;;13.90;51.40;;;;;;4922325;29;20233;-68
2021/04/27 08:14:21;;;;;;;8.00;7.20;;;13.60;52.50;;;;;;4920053;29;20244;-68
2021/04/27 08:16:48;;;;;;;9.65;7.15;;;13.60;53.70;;;;;;4923632;29;20656;-68
2021/04/27 08:19:17;;;;;;;8.73;7.93;;;13.60;51.70;;;;;;4921605;29;20749;-68
2021/04/27 08:21:44;;;;;;;7.70;6.88;;;13.50;51.50;;;;;;4926516;29;20210;-67
2021/04/27 08:24:12;;;;;;;7.63;6.82;;;13.70;53.50;;;;;;4930102;29;20654;-67
2021/04/27 08:26:39;;;;;;;7.93;7.20;;;13.70;53.00;;;;;;4916531;29;20269;-67
2021/04/27 08:29:06;;;;;;;8.05;7.13;;;13.60;54.20;;;;;;4924346;29;20202;-67
2021/04/27 08:31:33;;;;;;;8.25;7.45;;;13.70;54.60;;;;;;4917915;29;20242;-67
2021/04/27 08:34:00;;;;;;;8.27;7.00;;;13.70;53.90;;;;;;4929554;29;20236;-67
2021/04/27 08:36:29;;;;;;;7.25;6.63;;;13.50;54.00;;;;;;4928509;29;20305;-67
2021/04/27 08:38:56;;;;;;;10.30;7.70;;;13.40;53.10;;;;;;4921486;29;20226;-70
2021/04/27 08:41:25;;;;;;;8.10;6.72;;;13.40;55.00;;;;;;4927932;29;20209;-70
2021/04/27 08:43:52;;;;;;;8.35;7.47;;;13.40;54.50;;;;;;4928643;29;20201;-67
2021/04/27 08:46:20;;;;;;;8.27;7.22;;;13.30;55.00;;;;;;4926597;29;20206;-69
2021/04/27 08:48:47;;;;;;;9.07;8.18;;;13.40;54.30;;;;;;4928103;29;20213;-69
2021/04/27 08:51:15;;;;;;;9.55;7.40;;;13.60;54.30;;;;;;4925855;29;20774;-69
2021/04/27 08:53:44;;;;;;;8.90;7.57;;;13.60;54.70;;;;;;4925400;29;20242;-69
2021/04/27 08:56:13;;;;;;;8.88;7.50;;;13.60;55.00;;;;;;4923418;29;20206;-69
2021/04/27 08:58:40;;;;;;;9.38;8.02;;;13.50;55.20;;;;;;4929211;29;20237;-69
2021/04/27 09:01:08;;;;;;;8.70;8.00;;;13.60;54.70;;;;;;4929439;29;20202;-69
2021/04/27 09:03:42;;;;;;;8.63;7.75;;;13.50;54.50;;;;;;4925787;29;20241;-70
2021/04/27 09:06:13;;;;;;;8.50;7.65;;;13.90;55.00;;;;;;4929082;29;20942;-68
2021/04/27 09:08:41;;;;;;;8.88;7.97;;;14.70;55.50;;;;;;4921005;29;20217;-69
2021/04/27 09:11:31;;;;;;;9.35;8.45;;;15.50;53.00;;;;;;4924388;29;20704;-68
2021/04/27 09:14:15;;;;;;;10.18;7.75;;;16.40;51.10;;;;;;4920026;29;20213;-68
2021/04/27 09:16:48;;;;;;;9.15;8.18;;;17.10;49.30;;;;;;4926473;29;20671;-68
2021/04/27 09:19:31;;;;;;;9.95;8.90;;;17.80;48.50;;;;;;4922059;29;20238;-71
2021/04/27 09:22:06;;;;;;;9.40;8.50;;;18.60;48.10;;;;;;4920447;29;20214;-68
2021/04/27 09:24:36;;;;;;;8.47;7.67;;;19.50;46.90;;;;;;4925780;29;20634;-70
2021/04/27 09:27:05;;;;;;;7.97;7.27;;;20.30;43.80;;;;;;4922695;29;20664;-69
2021/04/27 09:29:36;;;;;;;8.37;7.37;;;20.50;43.70;;;;;;4928150;29;20700;-69
2021/04/27 09:32:04;;;;;;;8.63;7.83;;;20.50;44.30;;;;;;4924453;29;20723;-69
2021/04/27 09:34:32;;;;;;;9.90;8.87;;;19.50;44.10;;;;;;4923286;29;20664;-69
2021/04/27 09:37:01;;;;;;;9.40;8.50;;;19.20;45.50;;;;;;4928209;29;20645;-70
2021/04/27 09:39:33;;;;;;;14.47;8.27;;;19.20;46.00;;;;;;4926030;29;20700;-69
2021/04/27 09:42:05;;;;;;;9.47;8.57;;;19.50;45.20;;;;;;4924498;29;20638;-69
2021/04/27 09:44:35;;;;;;;8.67;7.83;;;19.80;43.20;;;;;;4921038;29;20638;-70
2021/04/27 09:47:27;;;;;;;8.83;7.97;;;19.80;42.80;;;;;;4923651;29;20642;-68
2021/04/27 09:50:03;;;;;;;9.50;8.70;;;19.80;43.20;;;;;;4909195;29;20652;-69
2021/04/27 09:52:33;;;;;;;10.00;8.43;;;19.40;46.00;;;;;;4915963;29;20638;-69
2021/04/27 09:55:11;;;;;;;9.90;8.90;;;19.40;46.20;;;;;;4923573;29;20641;-70
2021/04/27 09:57:40;;;;;;;9.67;8.60;;;19.40;46.40;;;;;;4915696;29;20641;-69
2021/04/27 10:00:26;;;;;;;9.63;8.73;;;19.10;46.00;;;;;;4926628;29;20670;-69
2021/04/27 10:02:54;;;;;;;10.07;9.10;;;19.50;47.20;;;;;;4921188;29;20645;-69
2021/04/27 10:05:21;;;;;;;9.57;8.20;;;19.10;46.00;;;;;;4924523;29;20641;-67
2021/04/27 10:07:47;;;;;;;9.87;8.53;;;19.00;46.70;;;;;;4926574;29;21278;-67
2021/04/27 10:10:16;;;;;;;10.57;9.50;;;19.20;45.00;;;;;;4917947;29;20633;-70
2021/04/27 10:12:43;;;;;;;9.70;8.90;;;19.10;43.30;;;;;;4928377;29;20641;-70
2021/04/27 10:15:12;;;;;;;11.85;9.60;;;18.30;44.70;;;;;;4925908;29;20697;-69
2021/04/27 10:17:38;;;;;;;10.50;9.38;;;18.50;44.20;;;;;;4927572;29;20633;-69
2021/04/27 10:20:11;;;;;;;10.50;9.25;;;18.40;47.30;;;;;;4927485;29;20210;-67
2021/04/27 10:22:38;;;;;;;11.07;9.97;;;18.90;47.00;;;;;;4925996;29;20619;-69
2021/04/27 10:25:05;;;;;;;9.90;8.57;;;19.00;44.80;;;;;;4925115;29;20629;-69
2021/04/27 10:27:32;;;;;;;10.40;9.40;;;19.10;45.20;;;;;;4925733;29;20959;-69
2021/04/27 10:30:29;;;;;;;9.00;8.20;;;19.50;44.70;;;;;;4921586;29;20706;-69
2021/04/27 10:33:16;;;;;;;9.73;8.50;;;19.60;42.70;;;;;;4920896;29;21213;-67
2021/04/27 10:35:44;;;;;;;9.68;8.75;;;20.00;39.50;;;;;;4922526;29;20648;-67
2021/04/27 10:38:12;;;;;;;9.33;8.53;;;19.60;42.10;;;;;;4926113;29;20300;-68
2021/04/27 10:40:46;;;;;;;9.30;8.30;;;19.70;41.20;;;;;;4927452;29;20745;-68
2021/04/27 10:43:38;;;;;;;10.15;9.15;;;19.50;42.20;;;;;;4928643;29;20632;-69
2021/04/27 10:46:11;;;;;;;9.80;8.85;;;19.20;40.80;;;;;;4926235;29;20210;-67
2021/04/27 10:48:40;;;;;;;10.50;9.40;;;19.00;40.70;;;;;;4923397;29;20833;-66
2021/04/27 10:51:43;;;;;;;10.70;9.05;;;18.80;41.70;;;;;;4922903;29;20227;-67
2021/04/27 10:54:13;;;;;;;9.00;8.02;;;18.20;42.30;;;;;;4925174;29;20220;-66
2021/04/27 10:56:43;;;;;;;9.40;8.50;;;18.20;45.40;;;;;;4920119;29;20213;-66
2021/04/27 10:59:11;;;;;;;9.52;8.60;;;18.00;42.60;;;;;;4928201;29;20607;-68
2021/04/27 11:01:41;;;;;;;10.43;9.00;;;17.90;42.90;;;;;;4925172;29;20220;-68
2021/04/27 11:04:08;;;;;;;8.45;7.65;;;17.90;41.00;;;;;;4928481;29;20206;-67
2021/04/27 11:06:34;;;;;;;8.98;8.18;;;17.80;44.10;;;;;;4927374;29;20577;-69
2021/04/27 11:09:12;;;;;;;10.85;9.75;;;18.00;42.30;;;;;;4927859;29;20214;-68
2021/04/27 11:11:40;;;;;;;9.48;7.63;;;17.80;41.50;;;;;;4927142;29;20236;-69
2021/04/27 11:14:20;;;;;;;12.13;9.75;;;17.90;44.80;;;;;;4930458;29;20660;-69
2021/04/27 11:16:53;;;;;;;9.88;8.93;;;17.30;43.40;;;;;;4931210;29;20237;-69
2021/04/27 11:19:42;;;;;;;10.85;9.45;;;17.00;43.20;;;;;;4931949;29;20261;-69
2021/04/27 11:22:17;;;;;;;11.05;9.63;;;17.00;44.60;;;;;;4926132;29;20293;-68
2021/04/27 11:24:43;;;;;;;9.23;8.23;;;16.90;45.20;;;;;;4930371;29;20315;-69
2021/04/27 11:27:21;;;;;;;9.93;9.02;;;17.00;46.20;;;;;;4930211;29;20214;-69
2021/04/27 11:29:54;;;;;;;10.32;8.50;;;17.30;45.90;;;;;;4925714;29;20663;-68
2021/04/27 11:32:22;;;;;;;9.30;8.30;;;17.70;47.90;;;;;;4928154;29;20237;-68
2021/04/27 11:35:01;;;;;;;10.52;9.43;;;18.00;46.80;;;;;;4922649;29;20222;-69
2021/04/27 11:37:32;;;;;;;10.82;9.55;;;18.00;45.90;;;;;;4924830;29;20213;-69
2021/04/27 11:40:11;;;;;;;9.32;8.43;;;18.10;44.70;;;;;;4924050;29;20201;-69
2021/04/27 11:42:38;;;;;;;11.68;9.15;;;18.10;45.40;;;;;;4925167;29;20353;-69
2021/04/27 11:45:07;;;;;;;10.60;9.65;;;17.70;43.60;;;;;;4930193;29;20224;-69
2021/04/27 11:47:36;;;;;;;8.55;7.72;;;17.30;43.40;;;;;;4930880;29;20210;-69
2021/04/27 11:50:06;;;;;;;10.73;9.63;;;17.40;43.90;;;;;;4931648;29;20201;-68
2021/04/27 11:53:05;;;;;;;13.00;9.00;;;17.20;43.40;;;;;;4931142;29;20240;-69
2021/04/27 11:55:38;;;;;;;9.95;8.70;;;17.40;45.10;;;;;;4933564;29;20255;-68
2021/04/27 11:58:07;;;;;;;9.27;8.38;;;17.60;46.10;;;;;;4929748;29;20202;-68
2021/04/27 12:00:46;;;;;;;11.15;9.63;;;17.60;47.50;;;;;;4929939;29;20304;-68
2021/04/27 12:03:22;;;;;;;11.07;9.95;;;17.70;46.50;;;;;;4926200;29;20715;-70
2021/04/27 12:05:49;;;;;;;11.07;9.20;;;17.50;44.80;;;;;;4927131;29;20281;-68
2021/04/27 12:08:25;;;;;;;9.38;8.40;;;17.50;46.50;;;;;;4930656;29;20210;-68
2021/04/27 12:11:08;;;;;;;9.10;8.15;;;17.70;49.00;;;;;;4926618;29;20261;-68
2021/04/27 12:13:35;;;;;;;9.48;7.53;;;18.00;46.60;;;;;;4926522;29;20206;-68
2021/04/27 12:16:06;;;;;;;10.65;8.57;;;17.90;45.40;;;;;;4929586;29;20300;-73
2021/04/27 12:18:45;;;;;;;8.95;7.90;;;17.80;47.90;;;;;;4920811;29;20248;-73
2021/04/27 12:21:28;;;;;;;8.98;8.07;;;17.60;46.60;;;;;;4927052;29;20205;-73
2021/04/27 12:24:09;;;;;;;9.50;8.60;;;17.90;48.50;;;;;;4922868;29;20224;-72
2021/04/27 12:26:36;;;;;;;11.63;9.20;;;17.70;46.20;;;;;;4927699;29;20220;-72
2021/04/27 12:29:04;;;;;;;11.73;10.52;;;17.60;46.70;;;;;;4928514;29;20213;-70
2021/04/27 12:31:31;;;;;;;9.98;8.52;;;17.50;45.40;;;;;;4928853;29;20279;-72
2021/04/27 12:34:00;;;;;;;9.38;8.38;;;17.50;46.70;;;;;;4929630;29;20201;-73
2021/04/27 12:36:38;;;;;;;11.30;8.57;;;17.50;48.30;;;;;;4929980;29;20240;-71
2021/04/27 12:39:08;;;;;;;10.85;9.75;;;17.50;48.00;;;;;;4921998;29;20212;-70
2021/04/27 12:41:39;;;;;;;10.38;9.27;;;17.70;47.10;;;;;;4926406;29;20218;-71
2021/04/27 12:44:29;;;;;;;8.88;8.02;;;17.80;47.20;;;;;;4923571;29;20324;-72
2021/04/27 12:46:56;;;;;;;9.90;8.85;;;18.00;47.30;;;;;;4926083;29;20309;-68
2021/04/27 12:49:28;;;;;;;10.57;9.60;;;18.10;42.80;;;;;;4929389;29;20228;-69
2021/04/27 12:52:01;;;;;;;12.20;8.13;;;18.00;42.00;;;;;;4934743;29;20360;-69
2021/04/27 12:54:29;;;;;;;9.88;8.88;;;18.10;43.50;;;;;;4924557;29;20297;-71
2021/04/27 12:57:13;;;;;;;9.80;8.90;;;18.20;44.10;;;;;;4927047;29;20657;-69
2021/04/27 12:59:41;;;;;;;8.55;7.72;;;18.10;45.20;;;;;;4925111;29;20210;-69
2021/04/27 13:02:10;;;;;;;9.82;8.82;;;18.00;46.30;;;;;;4929634;29;20214;-68